Time;durP1;ratioP1;P1;durP2;ratioP2;P2;SDS_P1;SDS_P2;PMS_P1;PMS_P2;Temp;Humidity;BMP_temperature;BMP_pressure;BME280_temperature;BME280_humidity;BME280_pressure;Samples;Min_cycle;Max_cycle;Signal;HPM_P1;HPM_P2
2022/04/10 00:03:40;;;;;;;2.20;1.63;;;7.70;75.10;;;;;;10133289;28;20638;-59
2022/04/10 00:08:31;;;;;;;2.80;1.95;;;7.60;75.40;;;;;;10132814;28;20452;-59
2022/04/10 00:13:21;;;;;;;3.28;1.80;;;7.60;75.70;;;;;;10133152;28;20036;-60
2022/04/10 00:18:12;;;;;;;3.13;1.58;;;7.60;75.70;;;;;;10130796;28;20032;-59
2022/04/10 00:23:04;;;;;;;3.97;1.30;;;7.50;75.90;;;;;;10132644;28;20589;-59
2022/04/10 00:27:54;;;;;;;2.28;1.48;;;7.50;76.10;;;;;;10130228;28;20057;-60
2022/04/10 00:32:45;;;;;;;2.53;1.70;;;7.50;76.20;;;;;;10133023;28;20028;-60
2022/04/10 00:37:37;;;;;;;3.63;1.83;;;7.40;76.40;;;;;;10133208;28;20463;-60
2022/04/10 00:42:35;;;;;;;2.58;1.52;;;7.40;76.70;;;;;;10132177;28;20033;-61
2022/04/10 00:47:26;;;;;;;1.95;1.75;;;7.30;76.80;;;;;;10124064;28;20024;-60
2022/04/10 00:52:18;;;;;;;1.92;1.60;;;7.30;77.00;;;;;;10131491;28;20099;-59
2022/04/10 00:57:11;;;;;;;6.60;1.90;;;7.20;77.10;;;;;;10131092;28;20032;-59
2022/04/10 01:02:02;;;;;;;2.10;1.52;;;7.30;77.20;;;;;;10130854;28;20502;-60
2022/04/10 01:06:54;;;;;;;5.22;1.58;;;7.30;77.20;;;;;;10132197;28;20037;-60
2022/04/10 01:11:44;;;;;;;3.85;1.95;;;7.20;78.20;;;;;;10132275;28;20074;-60
2022/04/10 01:16:36;;;;;;;2.75;1.67;;;7.20;77.80;;;;;;10127569;28;20436;-59
2022/04/10 01:21:28;;;;;;;4.50;1.80;;;7.10;78.20;;;;;;10130356;28;20035;-59
2022/04/10 01:26:19;;;;;;;3.65;1.67;;;7.00;78.50;;;;;;10130717;28;20110;-58
2022/04/10 01:31:10;;;;;;;4.18;2.08;;;7.00;78.60;;;;;;10129026;28;20431;-59
2022/04/10 01:36:01;;;;;;;5.88;2.85;;;7.00;78.90;;;;;;10128890;28;20029;-60
2022/04/10 01:40:51;;;;;;;4.03;2.75;;;6.90;79.40;;;;;;10130368;28;20028;-58
2022/04/10 01:45:42;;;;;;;4.90;2.88;;;6.80;79.70;;;;;;10130851;28;20036;-62
2022/04/10 01:50:33;;;;;;;2.65;1.80;;;6.80;80.00;;;;;;10131803;28;20651;-61
2022/04/10 01:55:23;;;;;;;4.28;2.47;;;6.80;80.30;;;;;;10130632;28;20024;-60
2022/04/10 02:00:14;;;;;;;2.78;1.60;;;6.60;80.40;;;;;;10135444;28;20021;-61
2022/04/10 02:05:05;;;;;;;4.32;2.28;;;6.60;80.70;;;;;;10138448;28;20044;-59
2022/04/10 02:09:56;;;;;;;2.63;1.88;;;6.60;81.10;;;;;;10137848;28;20400;-67
2022/04/10 02:14:47;;;;;;;3.30;1.55;;;6.50;81.10;;;;;;10144086;28;20020;-61
2022/04/10 02:19:37;;;;;;;4.00;1.55;;;6.50;81.30;;;;;;10136986;28;20173;-60
2022/04/10 02:24:28;;;;;;;1.80;1.35;;;6.50;81.30;;;;;;10136502;28;20031;-60
2022/04/10 02:29:19;;;;;;;1.83;1.27;;;6.50;81.60;;;;;;10135828;28;20044;-60
2022/04/10 02:34:09;;;;;;;2.38;1.13;;;6.40;81.80;;;;;;10136680;28;20033;-59
2022/04/10 02:39:00;;;;;;;2.80;1.42;;;6.40;81.70;;;;;;10137396;28;20086;-61
2022/04/10 02:43:51;;;;;;;2.72;1.83;;;6.50;81.80;;;;;;10136291;28;20044;-60
2022/04/10 02:48:42;;;;;;;3.53;1.58;;;6.50;81.80;;;;;;10137319;28;20107;-61
2022/04/10 02:53:33;;;;;;;3.05;1.63;;;6.40;81.90;;;;;;10136718;28;20024;-61
2022/04/10 02:58:23;;;;;;;3.85;1.70;;;6.40;82.10;;;;;;10136881;28;20028;-59
2022/04/10 03:03:14;;;;;;;3.22;1.52;;;6.40;82.10;;;;;;10135110;28;20601;-61
2022/04/10 03:08:05;;;;;;;2.28;1.55;;;6.30;82.30;;;;;;10133167;28;20029;-59
2022/04/10 03:12:56;;;;;;;2.60;1.75;;;6.30;82.40;;;;;;10129173;28;20149;-60
2022/04/10 03:17:46;;;;;;;4.88;1.80;;;6.20;82.80;;;;;;10134648;28;20055;-60
2022/04/10 03:22:37;;;;;;;5.57;1.90;;;6.20;83.00;;;;;;10135068;28;20062;-59
2022/04/10 03:27:28;;;;;;;3.40;1.80;;;6.20;83.10;;;;;;10135100;28;20098;-60
2022/04/10 03:32:18;;;;;;;4.63;2.10;;;6.20;83.50;;;;;;10135336;28;20524;-60
2022/04/10 03:37:10;;;;;;;3.55;2.13;;;6.10;83.80;;;;;;10133992;28;20024;-62
2022/04/10 03:42:00;;;;;;;3.45;1.80;;;6.10;83.90;;;;;;10132799;28;20108;-64
2022/04/10 03:46:51;;;;;;;1.98;1.75;;;6.00;84.20;;;;;;10132989;28;20119;-61
2022/04/10 03:51:42;;;;;;;3.40;2.53;;;6.00;84.30;;;;;;10133517;28;20030;-63
2022/04/10 03:56:32;;;;;;;4.28;2.05;;;6.10;84.30;;;;;;10133423;28;20495;-61
2022/04/10 04:01:23;;;;;;;2.83;1.88;;;6.00;84.50;;;;;;10135531;28;20024;-60
2022/04/10 04:06:14;;;;;;;4.22;2.35;;;5.90;85.00;;;;;;10131971;28;20047;-60
2022/04/10 04:11:04;;;;;;;3.05;2.22;;;5.70;85.10;;;;;;10133644;28;20518;-61
2022/04/10 04:15:55;;;;;;;3.42;2.40;;;5.70;85.70;;;;;;10134100;28;20040;-61
2022/04/10 04:20:45;;;;;;;2.33;1.98;;;5.80;85.70;;;;;;10127923;28;20025;-59
2022/04/10 04:25:36;;;;;;;4.28;2.30;;;5.70;86.10;;;;;;10131451;28;20390;-61
2022/04/10 04:30:28;;;;;;;3.47;2.20;;;5.70;86.20;;;;;;10132151;28;20048;-61
2022/04/10 04:35:19;;;;;;;2.67;1.88;;;5.60;86.40;;;;;;10130936;28;20078;-61
2022/04/10 04:40:11;;;;;;;3.10;1.85;;;5.60;86.70;;;;;;10132626;28;20505;-61
2022/04/10 04:45:02;;;;;;;4.30;2.22;;;5.60;86.90;;;;;;10131725;28;20127;-60
2022/04/10 04:49:54;;;;;;;4.38;2.25;;;5.60;87.00;;;;;;10131812;28;20041;-60
2022/04/10 04:54:45;;;;;;;3.08;2.22;;;5.50;87.20;;;;;;10130339;28;20052;-60
2022/04/10 04:59:35;;;;;;;4.97;2.33;;;5.50;87.40;;;;;;10131409;28;20511;-60
2022/04/10 05:04:26;;;;;;;4.63;2.20;;;5.40;87.70;;;;;;10130293;28;20036;-59
2022/04/10 05:09:17;;;;;;;3.30;1.58;;;5.50;87.90;;;;;;10129339;28;20024;-60
2022/04/10 05:14:07;;;;;;;3.80;1.90;;;5.60;88.20;;;;;;10131516;28;20043;-59
2022/04/10 05:18:58;;;;;;;3.60;2.22;;;5.60;88.20;;;;;;10131052;28;20508;-60
2022/04/10 05:23:49;;;;;;;3.00;1.90;;;5.60;88.50;;;;;;10130487;28;20041;-60
2022/04/10 05:28:40;;;;;;;3.08;2.15;;;5.80;88.70;;;;;;10131229;28;20056;-60
2022/04/10 05:33:35;;;;;;;1.92;1.67;;;5.80;88.70;;;;;;10133560;28;20119;-61
2022/04/10 05:38:25;;;;;;;2.60;1.92;;;5.80;88.60;;;;;;10133864;28;20017;-60
2022/04/10 05:43:16;;;;;;;3.25;2.25;;;5.80;89.00;;;;;;10136740;28;20051;-62
2022/04/10 05:48:07;;;;;;;3.08;2.40;;;5.80;89.20;;;;;;10138758;28;20021;-59
2022/04/10 05:52:57;;;;;;;3.33;2.33;;;5.80;89.20;;;;;;10143482;28;20165;-60
2022/04/10 05:57:48;;;;;;;6.57;2.40;;;5.80;89.30;;;;;;10138015;28;20024;-63
2022/04/10 06:02:40;;;;;;;2.67;1.92;;;5.90;89.20;;;;;;10138013;28;20086;-59
2022/04/10 06:07:30;;;;;;;4.68;2.63;;;6.00;89.40;;;;;;10137624;28;20054;-59
2022/04/10 06:12:21;;;;;;;3.83;1.92;;;6.00;89.50;;;;;;10137216;28;20074;-61
2022/04/10 06:17:12;;;;;;;3.80;2.10;;;6.10;89.60;;;;;;10135232;28;20195;-60
2022/04/10 06:22:03;;;;;;;3.45;2.42;;;6.00;89.90;;;;;;10138372;28;20040;-58
2022/04/10 06:26:54;;;;;;;4.60;2.47;;;6.10;90.00;;;;;;10137781;28;20032;-61
2022/04/10 06:31:45;;;;;;;3.67;2.13;;;6.10;90.10;;;;;;10135864;28;20036;-61
2022/04/10 06:36:37;;;;;;;5.93;2.35;;;6.20;90.20;;;;;;10133852;28;20040;-60
2022/04/10 06:41:27;;;;;;;4.07;2.38;;;6.30;90.20;;;;;;10137049;28;20035;-60
2022/04/10 06:46:18;;;;;;;5.50;2.30;;;6.30;90.20;;;;;;10134096;28;20051;-60
2022/04/10 06:51:09;;;;;;;4.90;2.45;;;6.50;90.20;;;;;;10135968;28;20085;-59
2022/04/10 06:55:59;;;;;;;4.05;2.00;;;6.50;90.20;;;;;;10132917;28;20028;-60
2022/04/10 07:00:50;;;;;;;3.70;2.67;;;6.50;90.30;;;;;;10133787;28;20107;-60
2022/04/10 07:05:41;;;;;;;3.58;2.38;;;6.70;90.20;;;;;;10135475;28;20052;-59
2022/04/10 07:10:31;;;;;;;3.10;2.33;;;6.70;90.30;;;;;;10137672;28;20411;-61
2022/04/10 07:15:22;;;;;;;4.43;2.75;;;6.80;90.30;;;;;;10135556;28;20100;-60
2022/04/10 07:20:13;;;;;;;4.80;2.58;;;6.90;90.20;;;;;;10134878;28;20037;-60
2022/04/10 07:25:05;;;;;;;3.15;2.10;;;7.00;90.10;;;;;;10134568;28;20037;-61
2022/04/10 07:29:55;;;;;;;4.32;2.85;;;7.10;90.10;;;;;;10135337;28;20064;-59
2022/04/10 07:34:46;;;;;;;5.00;2.25;;;7.20;90.10;;;;;;10132704;28;20157;-61
2022/04/10 07:39:36;;;;;;;3.17;2.08;;;7.40;90.10;;;;;;10135339;28;20051;-60
2022/04/10 07:44:27;;;;;;;2.70;2.22;;;7.50;90.00;;;;;;10130389;28;20036;-61
2022/04/10 07:49:18;;;;;;;3.55;2.15;;;7.50;90.00;;;;;;10133748;28;20020;-59
2022/04/10 07:54:08;;;;;;;3.47;2.17;;;7.60;90.00;;;;;;10136500;28;20390;-61
2022/04/10 07:58:59;;;;;;;3.22;1.85;;;7.70;90.00;;;;;;10138554;28;20025;-60
2022/04/10 08:03:51;;;;;;;3.13;1.95;;;7.70;90.00;;;;;;10133576;28;20115;-60
2022/04/10 08:08:42;;;;;;;2.80;1.85;;;7.90;89.70;;;;;;10133279;28;20078;-59
2022/04/10 08:13:33;;;;;;;4.38;2.17;;;8.00;89.60;;;;;;10126356;28;20533;-60
2022/04/10 08:18:24;;;;;;;3.63;2.10;;;8.20;89.30;;;;;;10132691;28;20020;-59
2022/04/10 08:23:14;;;;;;;1.83;1.40;;;8.20;89.10;;;;;;10132164;28;20120;-61
2022/04/10 08:28:05;;;;;;;2.92;1.77;;;8.30;88.70;;;;;;10131706;28;20080;-59
2022/04/10 08:32:56;;;;;;;4.03;1.90;;;8.30;88.80;;;;;;10132769;28;20534;-60
2022/04/10 08:37:47;;;;;;;4.03;3.10;;;8.50;88.50;;;;;;10130233;28;20028;-61
2022/04/10 08:42:38;;;;;;;2.97;2.08;;;8.70;88.10;;;;;;10132118;28;20037;-60
2022/04/10 08:47:30;;;;;;;2.17;1.75;;;8.90;87.70;;;;;;10130050;28;20483;-60
2022/04/10 08:52:21;;;;;;;2.75;1.90;;;8.90;87.40;;;;;;10131520;28;20032;-59
2022/04/10 08:57:12;;;;;;;3.30;2.13;;;9.10;88.10;;;;;;10132803;28;20044;-60
2022/04/10 09:02:04;;;;;;;4.07;2.30;;;9.20;87.10;;;;;;10131281;28;20461;-59
2022/04/10 09:06:58;;;;;;;4.05;1.80;;;9.50;86.90;;;;;;10130631;28;20059;-60
2022/04/10 09:11:54;;;;;;;3.70;1.90;;;9.60;86.50;;;;;;10133422;28;20422;-62
2022/04/10 09:16:45;;;;;;;;;;;9.60;86.60;;;;;;10130653;28;20483;-58
2022/04/10 09:21:38;;;;;;;5.90;2.10;;;9.80;85.80;;;;;;10131537;28;19962;-60
2022/04/10 09:26:46;;;;;;;4.40;1.83;;;10.10;85.60;;;;;;10132162;28;20078;-60
2022/04/10 09:31:37;;;;;;;3.50;2.05;;;10.40;85.00;;;;;;10132181;28;20040;-59
2022/04/10 09:36:36;;;;;;;2.90;2.08;;;10.60;84.70;;;;;;10128389;28;20025;-59
2022/04/10 09:41:27;;;;;;;3.72;2.17;;;11.00;84.40;;;;;;10131163;28;20024;-63
2022/04/10 09:46:17;;;;;;;2.45;2.15;;;11.10;84.10;;;;;;10130675;28;20040;-59
2022/04/10 09:51:10;;;;;;;4.13;2.22;;;11.30;83.90;;;;;;10128551;28;20029;-60
2022/04/10 09:56:07;;;;;;;3.28;1.88;;;11.40;83.40;;;;;;10130404;28;20021;-59
2022/04/10 10:00:59;;;;;;;3.17;2.08;;;11.40;83.00;;;;;;10130136;28;20036;-61
2022/04/10 10:05:52;;;;;;;3.70;1.83;;;11.00;82.80;;;;;;10130411;28;20037;-60
2022/04/10 10:10:44;;;;;;;4.55;2.05;;;10.60;83.20;;;;;;10131027;28;20550;-59
2022/04/10 10:15:36;;;;;;;3.17;1.63;;;10.60;82.70;;;;;;10129343;28;20437;-60
2022/04/10 10:20:27;;;;;;;4.38;2.10;;;10.50;82.00;;;;;;10132435;28;20031;-61
2022/04/10 10:25:27;;;;;;;2.38;1.70;;;10.10;82.10;;;;;;10133932;28;20067;-61
2022/04/10 10:30:22;;;;;;;3.65;1.80;;;9.90;81.60;;;;;;10137223;28;20056;-63
2022/04/10 10:35:38;;;;;;;3.40;1.90;;;9.70;81.40;;;;;;10136080;28;20032;-60
2022/04/10 10:40:29;;;;;;;2.00;1.40;;;9.80;81.20;;;;;;10120393;28;20024;-59
2022/04/10 10:45:38;;;;;;;2.72;1.85;;;10.00;80.70;;;;;;10130547;28;20036;-60
2022/04/10 10:50:29;;;;;;;2.47;1.30;;;10.40;80.00;;;;;;10136116;28;20573;-61
2022/04/10 10:55:20;;;;;;;1.70;1.23;;;10.50;79.90;;;;;;10134318;28;20103;-60
2022/04/10 11:00:18;;;;;;;2.88;1.58;;;10.80;79.50;;;;;;10135656;28;20107;-60
2022/04/10 11:05:29;;;;;;;1.70;1.40;;;10.90;79.00;;;;;;10135002;28;20519;-60
2022/04/10 11:10:20;;;;;;;2.60;1.60;;;11.00;78.30;;;;;;10144064;28;20041;-61
2022/04/10 11:15:22;;;;;;;3.10;1.70;;;10.90;78.30;;;;;;10132940;28;20038;-61
2022/04/10 11:20:19;;;;;;;2.63;1.30;;;10.70;78.00;;;;;;10128553;28;20025;-63
2022/04/10 11:25:10;;;;;;;2.72;1.42;;;10.70;77.90;;;;;;10132202;28;20123;-62
2022/04/10 11:30:03;;;;;;;2.65;1.40;;;11.00;77.00;;;;;;10134013;28;20059;-60
2022/04/10 11:34:59;;;;;;;3.85;1.90;;;11.10;76.40;;;;;;10132817;28;20032;-61
2022/04/10 11:39:55;;;;;;;2.10;1.15;;;11.20;75.60;;;;;;10132844;28;20029;-60
2022/04/10 11:44:48;;;;;;;3.58;1.98;;;11.60;75.40;;;;;;10133501;28;20550;-60
2022/04/10 11:49:39;;;;;;;3.30;1.65;;;12.20;74.70;;;;;;10134154;28;20447;-61
2022/04/10 11:54:33;;;;;;;2.50;1.85;;;12.80;74.10;;;;;;10133350;28;20054;-60
2022/04/10 11:59:24;;;;;;;3.45;1.25;;;13.00;74.10;;;;;;10130392;28;20060;-61
2022/04/10 12:04:18;;;;;;;3.63;1.60;;;13.20;73.90;;;;;;10133474;28;20060;-60
2022/04/10 12:09:09;;;;;;;2.30;1.50;;;13.30;73.60;;;;;;10134088;28;20021;-60
2022/04/10 12:14:00;;;;;;;2.85;1.70;;;13.10;72.40;;;;;;10133675;28;20414;-59
2022/04/10 12:18:53;;;;;;;2.10;1.52;;;13.10;72.40;;;;;;10132551;28;20124;-61
2022/04/10 12:23:45;;;;;;;3.58;1.60;;;13.40;71.20;;;;;;10131706;28;20147;-59
2022/04/10 12:28:38;;;;;;;2.08;1.13;;;13.20;71.20;;;;;;10132352;28;20527;-60
2022/04/10 12:33:30;;;;;;;2.88;1.10;;;13.00;70.80;;;;;;10130674;28;20029;-62
2022/04/10 12:38:26;;;;;;;1.80;1.00;;;12.90;70.00;;;;;;10129106;28;20104;-60
2022/04/10 12:43:16;;;;;;;2.42;1.00;;;12.90;69.30;;;;;;10125384;28;20530;-60
2022/04/10 12:48:24;;;;;;;2.33;1.20;;;13.00;68.60;;;;;;10130647;28;20029;-61
2022/04/10 12:53:15;;;;;;;3.80;1.77;;;13.00;67.50;;;;;;10132012;28;20104;-59
2022/04/10 12:58:09;;;;;;;1.45;1.30;;;13.40;67.50;;;;;;10130381;28;20151;-60
2022/04/10 13:03:19;;;;;;;3.35;1.60;;;13.60;67.10;;;;;;10131008;28;20036;-60
2022/04/10 13:08:11;;;;;;;2.78;1.63;;;13.90;66.50;;;;;;10129604;28;20265;-62
2022/04/10 13:13:04;;;;;;;4.13;1.55;;;13.70;67.30;;;;;;10123736;28;20233;-60
2022/04/10 13:17:57;;;;;;;3.50;1.63;;;13.80;67.50;;;;;;10130043;28;20044;-59
2022/04/10 13:22:47;;;;;;;2.17;1.33;;;15.30;68.20;;;;;;10130336;28;20056;-58
2022/04/10 13:27:38;;;;;;;2.78;1.80;;;18.40;65.60;;;;;;10131374;28;20071;-59
2022/04/10 13:32:29;;;;;;;2.22;1.40;;;20.80;63.30;;;;;;10128839;28;20082;-61
2022/04/10 13:37:20;;;;;;;2.47;1.60;;;22.50;60.20;;;;;;10127361;28;20028;-61
2022/04/10 13:42:11;;;;;;;3.60;1.35;;;22.30;57.90;;;;;;10130654;28;20059;-59
2022/04/10 13:47:02;;;;;;;3.78;1.60;;;19.50;59.00;;;;;;10130343;28;20038;-60
2022/04/10 13:51:53;;;;;;;3.58;1.55;;;17.40;60.10;;;;;;10131406;28;20410;-60
2022/04/10 13:56:44;;;;;;;2.97;1.40;;;16.20;59.30;;;;;;10136089;28;20113;-61
2022/04/10 14:01:35;;;;;;;1.40;1.20;;;14.60;59.40;;;;;;10138019;28;20044;-60
2022/04/10 14:06:26;;;;;;;2.08;1.73;;;14.30;59.00;;;;;;10138285;28;20537;-60
2022/04/10 14:11:17;;;;;;;2.67;1.67;;;14.40;57.90;;;;;;10139751;28;20078;-61
2022/04/10 14:16:08;;;;;;;2.15;1.27;;;15.60;57.40;;;;;;10137852;28;20016;-60
2022/04/10 14:20:59;;;;;;;3.05;1.60;;;16.60;55.50;;;;;;10137325;28;20028;-62
2022/04/10 14:25:49;;;;;;;2.13;1.40;;;16.50;55.40;;;;;;10136788;28;20522;-61
2022/04/10 14:30:40;;;;;;;1.90;1.27;;;17.50;54.80;;;;;;10137087;28;20052;-59
2022/04/10 14:35:31;;;;;;;2.20;1.20;;;20.20;53.60;;;;;;10136384;28;20028;-59
2022/04/10 14:40:21;;;;;;;2.42;1.40;;;21.90;52.00;;;;;;10135121;28;20123;-60
2022/04/10 14:45:12;;;;;;;1.30;1.02;;;21.30;51.30;;;;;;10134619;28;20028;-60
2022/04/10 14:50:03;;;;;;;3.88;1.48;;;18.70;53.20;;;;;;10137074;28;20340;-61
2022/04/10 14:54:54;;;;;;;1.38;1.27;;;17.50;53.70;;;;;;10136421;28;20035;-59
2022/04/10 14:59:44;;;;;;;2.17;0.90;;;17.50;52.90;;;;;;10137032;28;20506;-60
2022/04/10 15:04:35;;;;;;;4.38;1.20;;;16.40;52.50;;;;;;10136554;28;20498;-61
2022/04/10 15:09:26;;;;;;;1.80;1.20;;;15.50;52.30;;;;;;10135358;28;20039;-60
2022/04/10 15:14:16;;;;;;;3.80;1.83;;;15.10;51.60;;;;;;10136702;28;20032;-61
2022/04/10 15:19:09;;;;;;;1.48;1.10;;;14.50;51.20;;;;;;10136041;28;20321;-62
2022/04/10 15:24:00;;;;;;;2.15;0.93;;;14.30;50.30;;;;;;10134768;28;20036;-60
2022/04/10 15:28:50;;;;;;;1.75;0.82;;;14.20;50.00;;;;;;10134831;28;20064;-61
2022/04/10 15:33:41;;;;;;;3.25;1.00;;;14.40;49.10;;;;;;10136134;28;20306;-61
2022/04/10 15:38:32;;;;;;;1.92;1.10;;;14.20;48.70;;;;;;10133654;28;20034;-61
2022/04/10 15:43:22;;;;;;;3.20;0.90;;;19.20;44.30;;;;;;10132701;28;20028;-59
2022/04/10 15:48:13;;;;;;;2.97;1.02;;;16.80;45.90;;;;;;10132404;28;20465;-60
2022/04/10 15:53:05;;;;;;;1.75;1.10;;;15.40;47.30;;;;;;10132014;28;20086;-61
2022/04/10 15:57:55;;;;;;;2.97;1.77;;;15.60;47.40;;;;;;10134440;28;20039;-59
2022/04/10 16:02:47;;;;;;;2.78;1.00;;;20.20;41.50;;;;;;10133608;28;20256;-60
2022/04/10 16:07:38;;;;;;;1.95;0.80;;;17.50;44.30;;;;;;10134260;28;20059;-60
2022/04/10 16:12:28;;;;;;;2.13;1.55;;;17.60;45.00;;;;;;10134438;28;20031;-60
2022/04/10 16:17:20;;;;;;;2.92;1.33;;;22.30;40.00;;;;;;10131276;28;20074;-60
2022/04/10 16:22:11;;;;;;;1.98;1.35;;;24.50;37.90;;;;;;10127504;28;20052;-66
2022/04/10 16:32:11;;;;;;;2.97;1.38;;;26.70;35.60;;;;;;10110211;28;20103;-65
2022/04/10 16:37:01;;;;;;;3.85;1.63;;;26.40;35.90;;;;;;10126021;28;20036;-67
2022/04/10 16:41:52;;;;;;;2.40;1.20;;;26.00;35.90;;;;;;10128880;28;20017;-64
2022/04/10 16:46:44;;;;;;;2.10;1.52;;;26.60;34.90;;;;;;10132260;28;20494;-61
2022/04/10 16:51:35;;;;;;;1.40;1.25;;;26.70;34.40;;;;;;10129919;28;20016;-61
2022/04/10 16:56:25;;;;;;;1.88;1.13;;;26.50;34.30;;;;;;10125090;28;20407;-62
2022/04/10 17:01:16;;;;;;;1.77;1.27;;;25.30;34.80;;;;;;10129549;28;20040;-61
2022/04/10 17:06:07;;;;;;;1.73;1.02;;;24.20;35.40;;;;;;10129294;28;20526;-61
2022/04/10 17:10:58;;;;;;;1.65;1.02;;;23.70;35.40;;;;;;10128779;28;20017;-61
2022/04/10 17:15:48;;;;;;;2.72;1.95;;;23.50;35.00;;;;;;10129259;28;20036;-62
2022/04/10 17:20:42;;;;;;;4.03;2.08;;;22.60;35.50;;;;;;10130335;28;20048;-62
2022/04/10 17:25:32;;;;;;;3.50;1.90;;;18.80;39.00;;;;;;10129536;28;20067;-61
2022/04/10 17:30:23;;;;;;;3.33;1.55;;;16.80;40.50;;;;;;10133660;28;20067;-61
2022/04/10 17:35:14;;;;;;;4.95;1.48;;;15.80;40.50;;;;;;10135869;28;20036;-60
2022/04/10 17:40:05;;;;;;;2.60;1.45;;;15.20;40.50;;;;;;10137150;28;20113;-62
2022/04/10 17:44:55;;;;;;;2.75;1.60;;;14.80;40.50;;;;;;10134988;28;20025;-62
2022/04/10 17:49:46;;;;;;;4.25;1.85;;;14.40;40.30;;;;;;10139131;28;20028;-62
2022/04/10 17:54:37;;;;;;;8.25;2.35;;;14.20;40.50;;;;;;10138736;28;20036;-60
2022/04/10 17:59:27;;;;;;;4.43;1.75;;;13.90;40.70;;;;;;10138918;28;20024;-60
2022/04/10 18:04:18;;;;;;;3.75;1.90;;;13.60;40.90;;;;;;10137072;28;20049;-63
2022/04/10 18:09:09;;;;;;;2.95;1.52;;;13.50;41.10;;;;;;10137315;28;20020;-61
2022/04/10 18:14:00;;;;;;;4.45;1.70;;;13.30;41.20;;;;;;10138581;28;20490;-61
2022/04/10 18:18:51;;;;;;;6.00;2.05;;;13.10;41.40;;;;;;10139543;28;20132;-60
2022/04/10 18:23:42;;;;;;;3.13;1.80;;;13.00;41.70;;;;;;10137324;28;20036;-60
2022/04/10 18:28:32;;;;;;;4.18;1.42;;;12.80;41.90;;;;;;10138181;28;20441;-60
2022/04/10 18:33:23;;;;;;;3.45;2.13;;;12.70;42.30;;;;;;10136345;28;20566;-60
2022/04/10 18:38:14;;;;;;;3.30;1.88;;;12.60;42.50;;;;;;10133564;28;20276;-61
2022/04/10 18:43:06;;;;;;;5.90;2.78;;;12.60;42.70;;;;;;10136587;28;20123;-62
2022/04/10 18:48:00;;;;;;;5.05;2.45;;;12.40;42.90;;;;;;10135727;28;20274;-60
2022/04/10 18:52:51;;;;;;;7.00;1.98;;;12.40;43.30;;;;;;10134927;28;20040;-59
2022/04/10 18:57:42;;;;;;;5.25;2.80;;;12.30;43.70;;;;;;10135603;28;20073;-61
2022/04/10 19:02:33;;;;;;;7.35;2.35;;;12.10;43.90;;;;;;10135873;28;20032;-61
2022/04/10 19:07:24;;;;;;;10.73;3.58;;;12.10;44.40;;;;;;10136620;28;20456;-60
2022/04/10 19:12:15;;;;;;;3.35;2.00;;;12.00;44.80;;;;;;10134205;28;20031;-61
2022/04/10 19:17:06;;;;;;;3.10;1.95;;;11.90;45.10;;;;;;10133810;28;20511;-61
2022/04/10 19:21:57;;;;;;;3.80;1.80;;;11.90;45.50;;;;;;10133777;28;20042;-62
2022/04/10 19:26:47;;;;;;;2.50;1.63;;;11.80;45.80;;;;;;10114685;28;20037;-60
2022/04/10 19:31:38;;;;;;;3.53;1.90;;;11.80;46.30;;;;;;10115136;28;20043;-61
2022/04/10 19:36:29;;;;;;;4.60;2.33;;;11.70;46.60;;;;;;10124755;28;20032;-60
2022/04/10 19:41:19;;;;;;;3.50;1.63;;;11.60;46.90;;;;;;10134988;28;20112;-59
2022/04/10 19:46:11;;;;;;;4.55;2.17;;;11.60;47.30;;;;;;10130758;28;20325;-60
2022/04/10 19:51:02;;;;;;;3.58;1.77;;;11.40;47.80;;;;;;10129143;28;20033;-61
2022/04/10 19:55:53;;;;;;;5.35;2.00;;;11.30;48.10;;;;;;10129303;28;20560;-59
2022/04/10 20:00:44;;;;;;;8.05;2.95;;;11.20;48.50;;;;;;10132035;28;20024;-60
2022/04/10 20:05:35;;;;;;;4.40;2.47;;;11.20;48.80;;;;;;10130535;28;20096;-61
2022/04/10 20:10:27;;;;;;;4.95;2.75;;;11.10;49.10;;;;;;10132924;28;20075;-59
2022/04/10 20:15:17;;;;;;;5.38;2.55;;;11.00;49.40;;;;;;10131941;28;20094;-60
2022/04/10 20:20:09;;;;;;;3.80;2.40;;;10.90;49.70;;;;;;10133456;28;20032;-60
2022/04/10 20:25:00;;;;;;;4.13;2.80;;;10.90;50.00;;;;;;10130804;28;20340;-60
2022/04/10 20:29:51;;;;;;;3.53;2.00;;;10.90;50.20;;;;;;10132973;28;20151;-63
2022/04/10 20:34:42;;;;;;;3.78;2.40;;;10.80;50.40;;;;;;10122044;28;20028;-61
2022/04/10 20:39:33;;;;;;;4.75;2.95;;;10.80;50.80;;;;;;10105722;28;20406;-59
2022/04/10 20:44:24;;;;;;;4.32;2.28;;;10.70;51.00;;;;;;10134101;28;20036;-59
2022/04/10 20:49:16;;;;;;;5.35;2.75;;;10.80;51.10;;;;;;10132920;28;20028;-59
2022/04/10 20:54:07;;;;;;;3.72;2.50;;;10.60;51.60;;;;;;10132952;28;20066;-61
2022/04/10 20:58:58;;;;;;;6.18;2.58;;;10.60;52.00;;;;;;10132475;28;20039;-60
2022/04/10 21:03:48;;;;;;;5.13;2.45;;;10.50;52.10;;;;;;10129814;28;20123;-60
2022/04/10 21:08:39;;;;;;;3.63;2.00;;;10.30;52.50;;;;;;10130733;28;20496;-61
2022/04/10 21:13:30;;;;;;;5.05;2.60;;;10.30;52.80;;;;;;10129739;28;20627;-61
2022/04/10 21:18:21;;;;;;;5.88;2.60;;;10.20;53.10;;;;;;10128981;28;20036;-60
2022/04/10 21:23:11;;;;;;;2.67;1.75;;;10.20;53.50;;;;;;10130178;28;20036;-60
2022/04/10 21:28:03;;;;;;;3.00;2.38;;;10.10;53.80;;;;;;10132223;28;20406;-63
2022/04/10 21:32:56;;;;;;;6.03;2.25;;;10.00;54.10;;;;;;10129817;28;20032;-61
2022/04/10 21:37:47;;;;;;;2.90;1.85;;;10.00;54.30;;;;;;10132562;28;20111;-61
2022/04/10 21:42:38;;;;;;;6.18;2.70;;;9.80;54.70;;;;;;10131708;28;20573;-59
2022/04/10 21:47:28;;;;;;;4.78;2.45;;;9.70;55.10;;;;;;10131752;28;20032;-59
2022/04/10 21:52:19;;;;;;;4.55;2.35;;;9.70;55.50;;;;;;10130553;28;20115;-61
2022/04/10 21:57:10;;;;;;;3.70;2.95;;;9.60;56.00;;;;;;10128045;28;20020;-61
2022/04/10 22:02:00;;;;;;;5.97;2.15;;;9.50;56.20;;;;;;10127709;28;20447;-60
2022/04/10 22:06:51;;;;;;;6.93;1.92;;;9.40;56.60;;;;;;10129515;28;20479;-60
2022/04/10 22:11:42;;;;;;;3.28;2.50;;;9.40;56.90;;;;;;10122622;28;20090;-62
2022/04/10 22:16:32;;;;;;;4.43;2.17;;;9.40;57.30;;;;;;10126656;28;20029;-62
2022/04/10 22:21:23;;;;;;;3.58;1.85;;;9.40;57.60;;;;;;10128603;28;20031;-61
2022/04/10 22:26:13;;;;;;;3.25;2.20;;;9.30;58.00;;;;;;10137069;28;20041;-60
2022/04/10 22:31:04;;;;;;;4.80;2.30;;;9.40;58.70;;;;;;10137424;28;20101;-60
2022/04/10 22:35:55;;;;;;;3.85;1.45;;;9.40;58.70;;;;;;10136746;28;20025;-63
2022/04/10 22:40:45;;;;;;;2.35;1.58;;;9.30;59.30;;;;;;10137118;28;20036;-61
2022/04/10 22:45:37;;;;;;;2.95;1.88;;;9.30;59.50;;;;;;10127330;28;20041;-62
2022/04/10 22:50:28;;;;;;;2.65;1.80;;;9.10;60.90;;;;;;10134848;28;20024;-62
2022/04/10 22:55:19;;;;;;;3.53;1.80;;;9.10;61.40;;;;;;10125038;28;20025;-61
2022/04/10 23:00:10;;;;;;;2.95;2.03;;;9.10;61.30;;;;;;10129520;28;20033;-61
2022/04/10 23:05:01;;;;;;;3.30;1.73;;;9.00;61.30;;;;;;10135977;28;20071;-59
2022/04/10 23:09:52;;;;;;;3.55;1.85;;;9.10;61.70;;;;;;10126358;28;20098;-61
2022/04/10 23:14:42;;;;;;;3.47;1.98;;;9.00;61.70;;;;;;10132623;28;20033;-60
2022/04/10 23:19:33;;;;;;;5.65;1.88;;;8.90;62.50;;;;;;10136351;28;20051;-59
2022/04/10 23:24:24;;;;;;;5.97;2.60;;;8.90;62.40;;;;;;10138848;28;20120;-59
2022/04/10 23:29:14;;;;;;;6.72;2.78;;;8.70;62.30;;;;;;10134584;28;20068;-60
2022/04/10 23:34:05;;;;;;;2.65;1.73;;;8.60;62.80;;;;;;10135052;28;20029;-59
2022/04/10 23:38:56;;;;;;;7.43;2.72;;;8.60;62.90;;;;;;10135553;28;20077;-60
2022/04/10 23:43:46;;;;;;;6.90;2.20;;;8.40;63.20;;;;;;10144721;28;20040;-60
2022/04/10 23:48:39;;;;;;;3.92;2.28;;;8.40;63.50;;;;;;10135224;28;20371;-60
2022/04/10 23:53:29;;;;;;;3.40;1.83;;;8.40;63.60;;;;;;10133836;28;20154;-60
2022/04/10 23:58:20;;;;;;;5.30;2.03;;;8.40;63.80;;;;;;10134105;28;20107;-60
